sensor_id;sensor_type;location;lat;lon;timestamp;P1;durP1;ratioP1;P2;durP2;ratioP2
14740;SDS011;7462;53.530;9.414;2023-03-14T00:00:37;14.73;;;3.40;;
14740;SDS011;7462;53.530;9.414;2023-03-14T00:03:05;12.47;;;3.83;;
14740;SDS011;7462;53.530;9.414;2023-03-14T00:05:33;12.63;;;3.47;;
14740;SDS011;7462;53.530;9.414;2023-03-14T00:08:02;10.67;;;3.30;;
14740;SDS011;7462;53.530;9.414;2023-03-14T00:10:31;11.73;;;3.70;;
14740;SDS011;7462;53.530;9.414;2023-03-14T00:12:59;13.20;;;3.50;;
14740;SDS011;7462;53.530;9.414;2023-03-14T00:15:27;12.87;;;3.90;;
14740;SDS011;7462;53.530;9.414;2023-03-14T00:17:55;12.07;;;3.73;;
14740;SDS011;7462;53.530;9.414;2023-03-14T00:20:23;11.33;;;3.23;;
14740;SDS011;7462;53.530;9.414;2023-03-14T00:22:51;12.07;;;3.97;;
14740;SDS011;7462;53.530;9.414;2023-03-14T00:25:19;10.87;;;3.43;;
14740;SDS011;7462;53.530;9.414;2023-03-14T00:27:51;9.57;;;3.57;;
14740;SDS011;7462;53.530;9.414;2023-03-14T00:30:19;14.30;;;3.73;;
14740;SDS011;7462;53.530;9.414;2023-03-14T00:32:47;11.30;;;3.20;;
14740;SDS011;7462;53.530;9.414;2023-03-14T00:35:16;12.47;;;3.43;;
14740;SDS011;7462;53.530;9.414;2023-03-14T00:37:45;14.70;;;3.97;;
14740;SDS011;7462;53.530;9.414;2023-03-14T00:40:13;15.60;;;4.07;;
14740;SDS011;7462;53.530;9.414;2023-03-14T00:42:41;10.77;;;3.30;;
14740;SDS011;7462;53.530;9.414;2023-03-14T00:45:11;13.40;;;3.70;;
14740;SDS011;7462;53.530;9.414;2023-03-14T00:47:39;12.47;;;3.43;;
14740;SDS011;7462;53.530;9.414;2023-03-14T00:50:12;12.93;;;3.43;;
14740;SDS011;7462;53.530;9.414;2023-03-14T00:52:41;9.70;;;3.30;;
14740;SDS011;7462;53.530;9.414;2023-03-14T00:55:09;10.53;;;3.07;;
14740;SDS011;7462;53.530;9.414;2023-03-14T00:57:37;10.43;;;2.80;;
14740;SDS011;7462;53.530;9.414;2023-03-14T01:00:05;9.67;;;2.97;;
14740;SDS011;7462;53.530;9.414;2023-03-14T01:02:39;14.87;;;3.30;;
14740;SDS011;7462;53.530;9.414;2023-03-14T01:05:07;11.20;;;3.60;;
14740;SDS011;7462;53.530;9.414;2023-03-14T01:07:36;10.63;;;2.90;;
14740;SDS011;7462;53.530;9.414;2023-03-14T01:10:05;8.50;;;3.30;;
14740;SDS011;7462;53.530;9.414;2023-03-14T01:12:36;8.97;;;3.50;;
14740;SDS011;7462;53.530;9.414;2023-03-14T01:15:04;10.60;;;3.80;;
14740;SDS011;7462;53.530;9.414;2023-03-14T01:17:33;10.33;;;2.80;;
14740;SDS011;7462;53.530;9.414;2023-03-14T01:20:06;9.13;;;2.83;;
14740;SDS011;7462;53.530;9.414;2023-03-14T01:22:38;11.03;;;3.27;;
14740;SDS011;7462;53.530;9.414;2023-03-14T01:25:07;8.63;;;2.97;;
14740;SDS011;7462;53.530;9.414;2023-03-14T01:27:36;8.93;;;2.40;;
14740;SDS011;7462;53.530;9.414;2023-03-14T01:30:06;8.03;;;3.47;;
14740;SDS011;7462;53.530;9.414;2023-03-14T01:32:35;8.67;;;2.93;;
14740;SDS011;7462;53.530;9.414;2023-03-14T01:35:04;9.93;;;3.07;;
14740;SDS011;7462;53.530;9.414;2023-03-14T01:37:34;7.17;;;3.07;;
14740;SDS011;7462;53.530;9.414;2023-03-14T01:40:04;6.93;;;3.17;;
14740;SDS011;7462;53.530;9.414;2023-03-14T01:42:32;8.73;;;3.07;;
14740;SDS011;7462;53.530;9.414;2023-03-14T01:45:01;7.90;;;2.87;;
14740;SDS011;7462;53.530;9.414;2023-03-14T01:47:29;11.70;;;3.67;;
14740;SDS011;7462;53.530;9.414;2023-03-14T01:49:58;9.20;;;3.60;;
14740;SDS011;7462;53.530;9.414;2023-03-14T01:52:31;8.13;;;3.17;;
14740;SDS011;7462;53.530;9.414;2023-03-14T01:55:04;10.17;;;3.50;;
14740;SDS011;7462;53.530;9.414;2023-03-14T01:57:35;9.37;;;3.80;;
14740;SDS011;7462;53.530;9.414;2023-03-14T02:00:07;6.40;;;3.17;;
14740;SDS011;7462;53.530;9.414;2023-03-14T02:02:39;8.40;;;3.47;;
14740;SDS011;7462;53.530;9.414;2023-03-14T02:05:10;9.67;;;3.63;;
14740;SDS011;7462;53.530;9.414;2023-03-14T02:07:43;9.70;;;3.87;;
14740;SDS011;7462;53.530;9.414;2023-03-14T02:10:21;6.53;;;3.77;;
14740;SDS011;7462;53.530;9.414;2023-03-14T02:12:52;8.47;;;4.10;;
14740;SDS011;7462;53.530;9.414;2023-03-14T02:15:47;5.43;;;3.93;;
14740;SDS011;7462;53.530;9.414;2023-03-14T02:18:54;8.97;;;4.13;;
14740;SDS011;7462;53.530;9.414;2023-03-14T02:21:57;8.33;;;5.10;;
14740;SDS011;7462;53.530;9.414;2023-03-14T02:24:41;7.60;;;4.50;;
14740;SDS011;7462;53.530;9.414;2023-03-14T02:27:15;7.97;;;4.87;;
14740;SDS011;7462;53.530;9.414;2023-03-14T02:29:47;8.70;;;5.53;;
14740;SDS011;7462;53.530;9.414;2023-03-14T02:32:19;9.67;;;5.17;;
14740;SDS011;7462;53.530;9.414;2023-03-14T02:34:49;8.00;;;5.80;;
14740;SDS011;7462;53.530;9.414;2023-03-14T02:37:23;8.10;;;5.70;;
14740;SDS011;7462;53.530;9.414;2023-03-14T02:39:54;10.13;;;5.63;;
14740;SDS011;7462;53.530;9.414;2023-03-14T02:42:25;9.80;;;5.53;;
14740;SDS011;7462;53.530;9.414;2023-03-14T02:44:54;10.07;;;5.83;;
14740;SDS011;7462;53.530;9.414;2023-03-14T02:47:44;10.53;;;5.70;;
14740;SDS011;7462;53.530;9.414;2023-03-14T02:50:15;8.17;;;5.03;;
14740;SDS011;7462;53.530;9.414;2023-03-14T02:52:47;7.37;;;4.80;;
14740;SDS011;7462;53.530;9.414;2023-03-14T02:55:19;9.53;;;4.83;;
14740;SDS011;7462;53.530;9.414;2023-03-14T02:57:50;9.73;;;5.37;;
14740;SDS011;7462;53.530;9.414;2023-03-14T03:00:19;10.37;;;5.30;;
14740;SDS011;7462;53.530;9.414;2023-03-14T03:02:47;9.60;;;5.73;;
14740;SDS011;7462;53.530;9.414;2023-03-14T03:05:15;8.17;;;4.53;;
14740;SDS011;7462;53.530;9.414;2023-03-14T03:07:43;7.03;;;4.47;;
14740;SDS011;7462;53.530;9.414;2023-03-14T03:10:12;8.90;;;4.73;;
14740;SDS011;7462;53.530;9.414;2023-03-14T03:12:40;9.80;;;4.90;;
14740;SDS011;7462;53.530;9.414;2023-03-14T03:15:11;9.23;;;4.60;;
14740;SDS011;7462;53.530;9.414;2023-03-14T03:17:39;8.43;;;4.90;;
14740;SDS011;7462;53.530;9.414;2023-03-14T03:20:08;10.23;;;5.07;;
14740;SDS011;7462;53.530;9.414;2023-03-14T03:22:38;10.00;;;5.03;;
14740;SDS011;7462;53.530;9.414;2023-03-14T03:25:08;7.33;;;4.43;;
14740;SDS011;7462;53.530;9.414;2023-03-14T03:27:37;9.30;;;4.13;;
14740;SDS011;7462;53.530;9.414;2023-03-14T03:30:05;5.80;;;4.53;;
14740;SDS011;7462;53.530;9.414;2023-03-14T03:32:36;9.90;;;4.53;;
14740;SDS011;7462;53.530;9.414;2023-03-14T03:35:05;7.87;;;4.67;;
14740;SDS011;7462;53.530;9.414;2023-03-14T03:37:36;8.47;;;4.33;;
14740;SDS011;7462;53.530;9.414;2023-03-14T03:40:06;8.27;;;4.50;;
14740;SDS011;7462;53.530;9.414;2023-03-14T03:42:36;10.40;;;4.80;;
14740;SDS011;7462;53.530;9.414;2023-03-14T03:45:08;10.47;;;4.10;;
14740;SDS011;7462;53.530;9.414;2023-03-14T03:47:45;8.97;;;4.47;;
14740;SDS011;7462;53.530;9.414;2023-03-14T03:50:13;10.47;;;4.53;;
14740;SDS011;7462;53.530;9.414;2023-03-14T03:52:42;11.93;;;3.97;;
14740;SDS011;7462;53.530;9.414;2023-03-14T03:55:10;6.80;;;4.43;;
14740;SDS011;7462;53.530;9.414;2023-03-14T03:57:38;8.83;;;4.23;;
14740;SDS011;7462;53.530;9.414;2023-03-14T04:00:06;8.57;;;3.97;;
14740;SDS011;7462;53.530;9.414;2023-03-14T04:02:40;8.23;;;4.53;;
14740;SDS011;7462;53.530;9.414;2023-03-14T04:05:14;9.73;;;4.70;;
14740;SDS011;7462;53.530;9.414;2023-03-14T04:07:49;6.63;;;3.50;;
14740;SDS011;7462;53.530;9.414;2023-03-14T04:10:22;4.37;;;2.10;;
14740;SDS011;7462;53.530;9.414;2023-03-14T04:13:06;4.30;;;1.90;;
14740;SDS011;7462;53.530;9.414;2023-03-14T04:15:36;5.70;;;1.60;;
14740;SDS011;7462;53.530;9.414;2023-03-14T04:18:13;3.63;;;1.30;;
14740;SDS011;7462;53.530;9.414;2023-03-14T04:20:43;2.77;;;1.33;;
14740;SDS011;7462;53.530;9.414;2023-03-14T04:23:11;2.87;;;1.33;;
14740;SDS011;7462;53.530;9.414;2023-03-14T04:25:39;5.47;;;1.63;;
14740;SDS011;7462;53.530;9.414;2023-03-14T04:28:07;4.07;;;1.23;;
14740;SDS011;7462;53.530;9.414;2023-03-14T04:30:36;4.27;;;1.30;;
14740;SDS011;7462;53.530;9.414;2023-03-14T04:33:08;4.00;;;1.50;;
14740;SDS011;7462;53.530;9.414;2023-03-14T04:35:46;3.50;;;1.43;;
14740;SDS011;7462;53.530;9.414;2023-03-14T04:38:16;3.23;;;1.30;;
14740;SDS011;7462;53.530;9.414;2023-03-14T04:40:45;5.20;;;1.30;;
14740;SDS011;7462;53.530;9.414;2023-03-14T04:43:15;4.77;;;1.40;;
14740;SDS011;7462;53.530;9.414;2023-03-14T04:45:53;4.47;;;1.50;;
14740;SDS011;7462;53.530;9.414;2023-03-14T04:48:22;5.33;;;1.80;;
14740;SDS011;7462;53.530;9.414;2023-03-14T04:50:53;4.67;;;1.43;;
14740;SDS011;7462;53.530;9.414;2023-03-14T04:53:22;3.27;;;1.47;;
14740;SDS011;7462;53.530;9.414;2023-03-14T04:55:54;2.47;;;1.30;;
14740;SDS011;7462;53.530;9.414;2023-03-14T04:58:27;2.77;;;1.30;;
14740;SDS011;7462;53.530;9.414;2023-03-14T05:01:01;3.93;;;1.67;;
14740;SDS011;7462;53.530;9.414;2023-03-14T05:03:37;7.23;;;1.93;;
14740;SDS011;7462;53.530;9.414;2023-03-14T05:06:10;3.53;;;1.63;;
14740;SDS011;7462;53.530;9.414;2023-03-14T05:08:57;4.07;;;1.53;;
14740;SDS011;7462;53.530;9.414;2023-03-14T05:11:44;3.63;;;1.90;;
14740;SDS011;7462;53.530;9.414;2023-03-14T05:14:29;4.90;;;1.80;;
14740;SDS011;7462;53.530;9.414;2023-03-14T05:17:15;4.80;;;1.80;;
14740;SDS011;7462;53.530;9.414;2023-03-14T05:19:47;4.53;;;1.93;;
14740;SDS011;7462;53.530;9.414;2023-03-14T05:22:37;3.37;;;1.80;;
14740;SDS011;7462;53.530;9.414;2023-03-14T05:25:15;4.60;;;2.10;;
14740;SDS011;7462;53.530;9.414;2023-03-14T05:27:46;4.23;;;2.13;;
14740;SDS011;7462;53.530;9.414;2023-03-14T05:30:32;5.03;;;2.23;;
14740;SDS011;7462;53.530;9.414;2023-03-14T05:33:23;6.43;;;2.30;;
14740;SDS011;7462;53.530;9.414;2023-03-14T05:36:16;6.07;;;2.43;;
14740;SDS011;7462;53.530;9.414;2023-03-14T05:39:09;4.87;;;2.70;;
14740;SDS011;7462;53.530;9.414;2023-03-14T05:41:49;8.63;;;3.40;;
14740;SDS011;7462;53.530;9.414;2023-03-14T05:44:23;5.63;;;3.50;;
14740;SDS011;7462;53.530;9.414;2023-03-14T05:47:09;7.00;;;2.90;;
14740;SDS011;7462;53.530;9.414;2023-03-14T05:49:55;6.57;;;3.03;;
14740;SDS011;7462;53.530;9.414;2023-03-14T05:52:29;6.63;;;3.20;;
14740;SDS011;7462;53.530;9.414;2023-03-14T05:55:08;7.27;;;2.60;;
14740;SDS011;7462;53.530;9.414;2023-03-14T05:57:52;6.00;;;3.20;;
14740;SDS011;7462;53.530;9.414;2023-03-14T06:00:28;9.00;;;3.57;;
14740;SDS011;7462;53.530;9.414;2023-03-14T06:03:11;8.23;;;3.50;;
14740;SDS011;7462;53.530;9.414;2023-03-14T06:05:43;6.90;;;3.47;;
14740;SDS011;7462;53.530;9.414;2023-03-14T06:08:12;7.37;;;3.60;;
14740;SDS011;7462;53.530;9.414;2023-03-14T06:10:45;4.67;;;3.50;;
14740;SDS011;7462;53.530;9.414;2023-03-14T06:13:14;6.50;;;3.73;;
14740;SDS011;7462;53.530;9.414;2023-03-14T06:15:42;5.37;;;3.37;;
14740;SDS011;7462;53.530;9.414;2023-03-14T06:18:11;6.03;;;3.80;;
14740;SDS011;7462;53.530;9.414;2023-03-14T06:20:41;8.57;;;4.40;;
14740;SDS011;7462;53.530;9.414;2023-03-14T06:23:13;8.37;;;4.03;;
14740;SDS011;7462;53.530;9.414;2023-03-14T06:25:41;7.47;;;3.83;;
14740;SDS011;7462;53.530;9.414;2023-03-14T06:28:11;7.97;;;3.87;;
14740;SDS011;7462;53.530;9.414;2023-03-14T06:30:39;6.57;;;3.27;;
14740;SDS011;7462;53.530;9.414;2023-03-14T06:33:09;7.00;;;3.20;;
14740;SDS011;7462;53.530;9.414;2023-03-14T06:35:38;7.43;;;3.50;;
14740;SDS011;7462;53.530;9.414;2023-03-14T06:38:06;8.60;;;3.57;;
14740;SDS011;7462;53.530;9.414;2023-03-14T06:40:34;7.50;;;3.17;;
14740;SDS011;7462;53.530;9.414;2023-03-14T06:43:11;5.63;;;2.90;;
14740;SDS011;7462;53.530;9.414;2023-03-14T06:45:42;4.40;;;2.93;;
14740;SDS011;7462;53.530;9.414;2023-03-14T06:48:10;8.10;;;3.00;;
14740;SDS011;7462;53.530;9.414;2023-03-14T06:50:45;7.70;;;3.00;;
14740;SDS011;7462;53.530;9.414;2023-03-14T06:53:13;5.03;;;2.70;;
14740;SDS011;7462;53.530;9.414;2023-03-14T06:55:42;6.93;;;2.70;;
14740;SDS011;7462;53.530;9.414;2023-03-14T06:58:14;8.50;;;3.00;;
14740;SDS011;7462;53.530;9.414;2023-03-14T07:00:44;8.23;;;3.10;;
14740;SDS011;7462;53.530;9.414;2023-03-14T07:03:17;6.97;;;2.90;;
14740;SDS011;7462;53.530;9.414;2023-03-14T07:05:48;7.83;;;3.40;;
14740;SDS011;7462;53.530;9.414;2023-03-14T07:08:16;7.93;;;3.17;;
14740;SDS011;7462;53.530;9.414;2023-03-14T07:10:44;6.27;;;2.97;;
14740;SDS011;7462;53.530;9.414;2023-03-14T07:13:14;9.87;;;3.10;;
14740;SDS011;7462;53.530;9.414;2023-03-14T07:15:57;6.00;;;2.53;;
14740;SDS011;7462;53.530;9.414;2023-03-14T07:18:26;7.40;;;2.97;;
14740;SDS011;7462;53.530;9.414;2023-03-14T07:20:55;6.67;;;2.57;;
14740;SDS011;7462;53.530;9.414;2023-03-14T07:23:23;4.77;;;2.67;;
14740;SDS011;7462;53.530;9.414;2023-03-14T07:25:52;9.83;;;2.80;;
14740;SDS011;7462;53.530;9.414;2023-03-14T07:28:25;6.30;;;2.83;;
14740;SDS011;7462;53.530;9.414;2023-03-14T07:31:07;7.13;;;2.57;;
14740;SDS011;7462;53.530;9.414;2023-03-14T07:33:37;7.70;;;3.20;;
14740;SDS011;7462;53.530;9.414;2023-03-14T07:36:06;5.60;;;2.70;;
14740;SDS011;7462;53.530;9.414;2023-03-14T07:38:35;6.80;;;2.63;;
14740;SDS011;7462;53.530;9.414;2023-03-14T07:41:12;7.00;;;2.63;;
14740;SDS011;7462;53.530;9.414;2023-03-14T07:43:49;6.10;;;2.80;;
14740;SDS011;7462;53.530;9.414;2023-03-14T07:46:20;6.80;;;2.90;;
14740;SDS011;7462;53.530;9.414;2023-03-14T07:48:48;8.17;;;2.80;;
14740;SDS011;7462;53.530;9.414;2023-03-14T07:51:16;7.30;;;2.93;;
14740;SDS011;7462;53.530;9.414;2023-03-14T07:53:44;7.07;;;3.00;;
14740;SDS011;7462;53.530;9.414;2023-03-14T07:56:13;5.83;;;2.47;;
14740;SDS011;7462;53.530;9.414;2023-03-14T07:58:41;5.90;;;2.60;;
14740;SDS011;7462;53.530;9.414;2023-03-14T08:01:10;6.20;;;2.60;;
14740;SDS011;7462;53.530;9.414;2023-03-14T08:03:38;6.87;;;2.50;;
14740;SDS011;7462;53.530;9.414;2023-03-14T08:06:06;4.83;;;2.37;;
14740;SDS011;7462;53.530;9.414;2023-03-14T08:08:34;5.77;;;2.50;;
14740;SDS011;7462;53.530;9.414;2023-03-14T08:11:03;9.47;;;2.63;;
14740;SDS011;7462;53.530;9.414;2023-03-14T08:13:32;4.67;;;2.50;;
14740;SDS011;7462;53.530;9.414;2023-03-14T08:16:00;8.40;;;2.57;;
14740;SDS011;7462;53.530;9.414;2023-03-14T08:18:30;6.67;;;2.30;;
14740;SDS011;7462;53.530;9.414;2023-03-14T08:20:58;5.43;;;2.80;;
14740;SDS011;7462;53.530;9.414;2023-03-14T08:23:26;5.63;;;2.67;;
14740;SDS011;7462;53.530;9.414;2023-03-14T08:25:54;5.53;;;2.60;;
14740;SDS011;7462;53.530;9.414;2023-03-14T08:28:22;5.63;;;3.30;;
14740;SDS011;7462;53.530;9.414;2023-03-14T08:30:51;6.57;;;2.80;;
14740;SDS011;7462;53.530;9.414;2023-03-14T08:33:22;9.77;;;3.23;;
14740;SDS011;7462;53.530;9.414;2023-03-14T08:35:52;7.40;;;2.97;;
14740;SDS011;7462;53.530;9.414;2023-03-14T08:38:21;6.90;;;3.37;;
14740;SDS011;7462;53.530;9.414;2023-03-14T08:40:54;9.57;;;3.33;;
14740;SDS011;7462;53.530;9.414;2023-03-14T08:43:23;7.27;;;3.60;;
14740;SDS011;7462;53.530;9.414;2023-03-14T08:45:52;7.10;;;3.57;;
14740;SDS011;7462;53.530;9.414;2023-03-14T08:48:20;9.50;;;3.63;;
14740;SDS011;7462;53.530;9.414;2023-03-14T08:50:48;11.00;;;4.10;;
14740;SDS011;7462;53.530;9.414;2023-03-14T08:53:18;10.73;;;3.73;;
14740;SDS011;7462;53.530;9.414;2023-03-14T08:55:47;7.70;;;3.40;;
14740;SDS011;7462;53.530;9.414;2023-03-14T08:58:19;5.77;;;3.27;;
14740;SDS011;7462;53.530;9.414;2023-03-14T09:00:47;7.60;;;3.20;;
14740;SDS011;7462;53.530;9.414;2023-03-14T09:03:15;8.27;;;3.43;;
14740;SDS011;7462;53.530;9.414;2023-03-14T09:05:44;9.37;;;3.27;;
14740;SDS011;7462;53.530;9.414;2023-03-14T09:08:12;7.10;;;3.83;;
14740;SDS011;7462;53.530;9.414;2023-03-14T09:10:41;9.07;;;4.13;;
14740;SDS011;7462;53.530;9.414;2023-03-14T09:13:09;7.90;;;3.43;;
14740;SDS011;7462;53.530;9.414;2023-03-14T09:15:38;7.03;;;3.27;;
14740;SDS011;7462;53.530;9.414;2023-03-14T09:18:08;7.60;;;3.17;;
14740;SDS011;7462;53.530;9.414;2023-03-14T09:20:36;2.10;;;0.90;;
14740;SDS011;7462;53.530;9.414;2023-03-14T09:23:04;2.60;;;0.80;;
14740;SDS011;7462;53.530;9.414;2023-03-14T09:25:32;3.63;;;0.93;;
14740;SDS011;7462;53.530;9.414;2023-03-14T09:28:02;2.53;;;1.00;;
14740;SDS011;7462;53.530;9.414;2023-03-14T09:30:30;3.00;;;1.07;;
14740;SDS011;7462;53.530;9.414;2023-03-14T09:32:58;3.03;;;0.60;;
14740;SDS011;7462;53.530;9.414;2023-03-14T09:35:26;3.03;;;1.00;;
14740;SDS011;7462;53.530;9.414;2023-03-14T09:37:54;3.70;;;0.80;;
14740;SDS011;7462;53.530;9.414;2023-03-14T09:40:22;1.70;;;0.73;;
14740;SDS011;7462;53.530;9.414;2023-03-14T09:42:52;4.67;;;0.73;;
14740;SDS011;7462;53.530;9.414;2023-03-14T09:45:25;4.00;;;0.73;;
14740;SDS011;7462;53.530;9.414;2023-03-14T09:47:55;2.87;;;0.70;;
14740;SDS011;7462;53.530;9.414;2023-03-14T09:50:26;1.80;;;0.60;;
14740;SDS011;7462;53.530;9.414;2023-03-14T09:53:02;2.23;;;0.53;;
14740;SDS011;7462;53.530;9.414;2023-03-14T09:55:34;2.77;;;0.53;;
14740;SDS011;7462;53.530;9.414;2023-03-14T09:58:03;1.43;;;0.40;;
14740;SDS011;7462;53.530;9.414;2023-03-14T10:00:40;0.93;;;0.33;;
14740;SDS011;7462;53.530;9.414;2023-03-14T10:03:21;0.73;;;0.40;;
14740;SDS011;7462;53.530;9.414;2023-03-14T10:05:56;1.77;;;0.70;;
14740;SDS011;7462;53.530;9.414;2023-03-14T10:08:25;1.47;;;0.87;;
14740;SDS011;7462;53.530;9.414;2023-03-14T10:10:54;1.87;;;0.60;;
14740;SDS011;7462;53.530;9.414;2023-03-14T10:13:23;1.27;;;0.63;;
14740;SDS011;7462;53.530;9.414;2023-03-14T10:15:54;0.77;;;0.40;;
14740;SDS011;7462;53.530;9.414;2023-03-14T10:18:28;1.23;;;0.40;;
14740;SDS011;7462;53.530;9.414;2023-03-14T10:21:04;0.70;;;0.43;;
14740;SDS011;7462;53.530;9.414;2023-03-14T10:23:34;0.50;;;0.50;;
14740;SDS011;7462;53.530;9.414;2023-03-14T10:26:06;0.60;;;0.60;;
14740;SDS011;7462;53.530;9.414;2023-03-14T10:28:38;2.07;;;0.87;;
14740;SDS011;7462;53.530;9.414;2023-03-14T10:31:11;1.73;;;0.90;;
14740;SDS011;7462;53.530;9.414;2023-03-14T10:33:39;0.97;;;0.87;;
14740;SDS011;7462;53.530;9.414;2023-03-14T10:36:15;2.30;;;0.83;;
14740;SDS011;7462;53.530;9.414;2023-03-14T10:38:47;1.50;;;0.80;;
14740;SDS011;7462;53.530;9.414;2023-03-14T10:41:16;1.43;;;0.90;;
14740;SDS011;7462;53.530;9.414;2023-03-14T10:43:49;1.03;;;0.40;;
14740;SDS011;7462;53.530;9.414;2023-03-14T10:46:20;1.33;;;0.50;;
14740;SDS011;7462;53.530;9.414;2023-03-14T10:49:23;1.07;;;0.40;;
14740;SDS011;7462;53.530;9.414;2023-03-14T10:51:54;0.73;;;0.40;;
14740;SDS011;7462;53.530;9.414;2023-03-14T10:54:22;3.13;;;0.60;;
14740;SDS011;7462;53.530;9.414;2023-03-14T10:56:57;0.50;;;0.43;;
14740;SDS011;7462;53.530;9.414;2023-03-14T10:59:27;2.80;;;0.60;;
14740;SDS011;7462;53.530;9.414;2023-03-14T11:02:03;0.73;;;0.30;;
14740;SDS011;7462;53.530;9.414;2023-03-14T11:04:54;1.40;;;0.37;;
14740;SDS011;7462;53.530;9.414;2023-03-14T11:07:32;0.87;;;0.50;;
14740;SDS011;7462;53.530;9.414;2023-03-14T11:10:08;2.20;;;0.50;;
14740;SDS011;7462;53.530;9.414;2023-03-14T11:12:41;2.27;;;0.50;;
14740;SDS011;7462;53.530;9.414;2023-03-14T11:15:20;0.80;;;0.43;;
14740;SDS011;7462;53.530;9.414;2023-03-14T11:17:57;2.13;;;1.00;;
14740;SDS011;7462;53.530;9.414;2023-03-14T11:20:41;3.70;;;0.60;;
14740;SDS011;7462;53.530;9.414;2023-03-14T11:23:14;3.40;;;0.60;;
14740;SDS011;7462;53.530;9.414;2023-03-14T11:25:50;1.87;;;0.57;;
14740;SDS011;7462;53.530;9.414;2023-03-14T11:28:29;4.37;;;0.90;;
14740;SDS011;7462;53.530;9.414;2023-03-14T11:31:04;6.90;;;1.07;;
14740;SDS011;7462;53.530;9.414;2023-03-14T11:33:43;4.10;;;0.80;;
14740;SDS011;7462;53.530;9.414;2023-03-14T11:36:17;5.80;;;1.43;;
14740;SDS011;7462;53.530;9.414;2023-03-14T11:38:49;7.00;;;0.90;;
14740;SDS011;7462;53.530;9.414;2023-03-14T11:41:19;4.87;;;1.50;;
14740;SDS011;7462;53.530;9.414;2023-03-14T11:43:52;4.57;;;0.87;;
14740;SDS011;7462;53.530;9.414;2023-03-14T11:46:24;4.17;;;0.77;;
14740;SDS011;7462;53.530;9.414;2023-03-14T11:48:58;3.90;;;1.23;;
14740;SDS011;7462;53.530;9.414;2023-03-14T11:51:32;7.53;;;1.37;;
14740;SDS011;7462;53.530;9.414;2023-03-14T11:54:04;8.10;;;1.10;;
14740;SDS011;7462;53.530;9.414;2023-03-14T11:56:44;6.73;;;1.00;;
14740;SDS011;7462;53.530;9.414;2023-03-14T11:59:19;9.53;;;1.40;;
14740;SDS011;7462;53.530;9.414;2023-03-14T12:01:53;6.77;;;1.40;;
14740;SDS011;7462;53.530;9.414;2023-03-14T12:04:34;4.93;;;1.20;;
14740;SDS011;7462;53.530;9.414;2023-03-14T12:07:16;9.73;;;1.80;;
14740;SDS011;7462;53.530;9.414;2023-03-14T12:09:47;9.17;;;1.63;;
14740;SDS011;7462;53.530;9.414;2023-03-14T12:12:18;12.10;;;1.73;;
14740;SDS011;7462;53.530;9.414;2023-03-14T12:14:53;12.47;;;1.67;;
14740;SDS011;7462;53.530;9.414;2023-03-14T12:17:24;12.97;;;2.03;;
14740;SDS011;7462;53.530;9.414;2023-03-14T12:20:02;11.17;;;1.97;;
14740;SDS011;7462;53.530;9.414;2023-03-14T12:22:34;14.30;;;2.57;;
14740;SDS011;7462;53.530;9.414;2023-03-14T12:25:04;19.73;;;2.43;;
14740;SDS011;7462;53.530;9.414;2023-03-14T12:27:42;10.20;;;2.43;;
14740;SDS011;7462;53.530;9.414;2023-03-14T12:30:17;16.20;;;2.20;;
14740;SDS011;7462;53.530;9.414;2023-03-14T12:33:14;11.07;;;2.00;;
14740;SDS011;7462;53.530;9.414;2023-03-14T12:35:51;17.47;;;2.43;;
14740;SDS011;7462;53.530;9.414;2023-03-14T12:38:23;14.53;;;2.00;;
14740;SDS011;7462;53.530;9.414;2023-03-14T12:40:58;17.27;;;1.90;;
14740;SDS011;7462;53.530;9.414;2023-03-14T12:43:31;11.60;;;2.27;;
14740;SDS011;7462;53.530;9.414;2023-03-14T12:46:07;11.87;;;2.13;;
14740;SDS011;7462;53.530;9.414;2023-03-14T12:48:43;10.13;;;1.90;;
14740;SDS011;7462;53.530;9.414;2023-03-14T12:51:14;7.73;;;1.57;;
14740;SDS011;7462;53.530;9.414;2023-03-14T12:53:49;10.97;;;2.00;;
14740;SDS011;7462;53.530;9.414;2023-03-14T12:56:34;8.50;;;1.87;;
14740;SDS011;7462;53.530;9.414;2023-03-14T12:59:23;9.37;;;1.47;;
14740;SDS011;7462;53.530;9.414;2023-03-14T13:01:59;6.70;;;1.13;;
14740;SDS011;7462;53.530;9.414;2023-03-14T13:04:32;8.80;;;1.70;;
14740;SDS011;7462;53.530;9.414;2023-03-14T13:07:10;11.13;;;1.53;;
14740;SDS011;7462;53.530;9.414;2023-03-14T13:12:47;16.13;;;2.20;;
14740;SDS011;7462;53.530;9.414;2023-03-14T13:15:18;8.33;;;1.70;;
14740;SDS011;7462;53.530;9.414;2023-03-14T13:17:52;5.97;;;1.43;;
14740;SDS011;7462;53.530;9.414;2023-03-14T13:20:26;7.43;;;1.50;;
14740;SDS011;7462;53.530;9.414;2023-03-14T13:22:58;10.07;;;1.50;;
14740;SDS011;7462;53.530;9.414;2023-03-14T13:25:29;6.87;;;1.50;;
14740;SDS011;7462;53.530;9.414;2023-03-14T13:28:00;8.10;;;1.40;;
14740;SDS011;7462;53.530;9.414;2023-03-14T13:30:29;7.07;;;1.60;;
14740;SDS011;7462;53.530;9.414;2023-03-14T13:33:06;4.77;;;1.40;;
14740;SDS011;7462;53.530;9.414;2023-03-14T13:35:41;8.80;;;1.63;;
14740;SDS011;7462;53.530;9.414;2023-03-14T13:38:16;10.97;;;1.83;;
14740;SDS011;7462;53.530;9.414;2023-03-14T13:40:46;12.03;;;2.20;;
14740;SDS011;7462;53.530;9.414;2023-03-14T13:43:17;6.67;;;1.30;;
14740;SDS011;7462;53.530;9.414;2023-03-14T13:45:52;8.07;;;1.70;;
14740;SDS011;7462;53.530;9.414;2023-03-14T13:48:26;7.87;;;1.83;;
14740;SDS011;7462;53.530;9.414;2023-03-14T13:50:56;9.57;;;1.67;;
14740;SDS011;7462;53.530;9.414;2023-03-14T13:53:29;9.90;;;1.73;;
14740;SDS011;7462;53.530;9.414;2023-03-14T13:56:00;7.83;;;1.53;;
14740;SDS011;7462;53.530;9.414;2023-03-14T13:58:30;10.77;;;2.17;;
14740;SDS011;7462;53.530;9.414;2023-03-14T14:01:03;12.87;;;1.90;;
14740;SDS011;7462;53.530;9.414;2023-03-14T14:03:34;7.03;;;1.40;;
14740;SDS011;7462;53.530;9.414;2023-03-14T14:06:07;12.80;;;1.90;;
14740;SDS011;7462;53.530;9.414;2023-03-14T14:08:45;8.57;;;1.50;;
14740;SDS011;7462;53.530;9.414;2023-03-14T14:11:16;8.40;;;1.63;;
14740;SDS011;7462;53.530;9.414;2023-03-14T14:13:58;10.07;;;1.63;;
14740;SDS011;7462;53.530;9.414;2023-03-14T14:16:27;6.23;;;1.63;;
14740;SDS011;7462;53.530;9.414;2023-03-14T14:18:57;9.07;;;1.60;;
14740;SDS011;7462;53.530;9.414;2023-03-14T14:21:27;9.73;;;1.53;;
14740;SDS011;7462;53.530;9.414;2023-03-14T14:23:57;9.63;;;1.67;;
14740;SDS011;7462;53.530;9.414;2023-03-14T14:26:26;12.33;;;1.90;;
14740;SDS011;7462;53.530;9.414;2023-03-14T14:28:58;6.80;;;1.50;;
14740;SDS011;7462;53.530;9.414;2023-03-14T14:31:28;9.60;;;1.47;;
14740;SDS011;7462;53.530;9.414;2023-03-14T14:33:57;9.00;;;1.50;;
14740;SDS011;7462;53.530;9.414;2023-03-14T14:36:27;8.77;;;1.83;;
14740;SDS011;7462;53.530;9.414;2023-03-14T14:39:00;9.00;;;1.90;;
14740;SDS011;7462;53.530;9.414;2023-03-14T14:41:32;5.33;;;1.47;;
14740;SDS011;7462;53.530;9.414;2023-03-14T14:44:02;12.10;;;2.10;;
14740;SDS011;7462;53.530;9.414;2023-03-14T14:46:32;7.87;;;1.20;;
14740;SDS011;7462;53.530;9.414;2023-03-14T14:49:02;9.53;;;1.60;;
14740;SDS011;7462;53.530;9.414;2023-03-14T14:51:38;9.73;;;2.00;;
14740;SDS011;7462;53.530;9.414;2023-03-14T14:54:13;8.90;;;1.40;;
14740;SDS011;7462;53.530;9.414;2023-03-14T14:56:47;8.40;;;1.80;;
14740;SDS011;7462;53.530;9.414;2023-03-14T14:59:22;7.33;;;1.83;;
14740;SDS011;7462;53.530;9.414;2023-03-14T15:01:56;11.57;;;1.90;;
14740;SDS011;7462;53.530;9.414;2023-03-14T15:04:26;7.60;;;1.57;;
14740;SDS011;7462;53.530;9.414;2023-03-14T15:06:57;12.80;;;2.07;;
14740;SDS011;7462;53.530;9.414;2023-03-14T15:09:26;9.33;;;1.60;;
14740;SDS011;7462;53.530;9.414;2023-03-14T15:11:55;4.20;;;1.10;;
14740;SDS011;7462;53.530;9.414;2023-03-14T15:14:23;8.93;;;2.10;;
14740;SDS011;7462;53.530;9.414;2023-03-14T15:16:51;11.70;;;2.03;;
14740;SDS011;7462;53.530;9.414;2023-03-14T15:19:20;7.27;;;1.70;;
14740;SDS011;7462;53.530;9.414;2023-03-14T15:21:51;7.37;;;1.20;;
14740;SDS011;7462;53.530;9.414;2023-03-14T15:24:20;9.43;;;1.50;;
14740;SDS011;7462;53.530;9.414;2023-03-14T15:26:50;11.70;;;1.70;;
14740;SDS011;7462;53.530;9.414;2023-03-14T15:29:18;6.10;;;1.67;;
14740;SDS011;7462;53.530;9.414;2023-03-14T15:31:46;8.53;;;1.60;;